^^
Meteo Knjazevac Station Historical Data
Daily Summary for August 19, 2021 Units:  Metric    English   Both
Daily Weekly Monthly Yearly Custom
  High: Low: Average:
Temperature: 24.9 °C 12.5 °C 18.2 °C
Dew Point: 15.7 °C 10.7 °C 13.3 °C
Humidity: 93% 47% 75%
Wind Speed: 14.5km/h 0km/h 4.8km/h
Wind Gust: 24.1km/h - -
Wind- - SSE
Pressure: 1017.8 hPa 1014.4 hPa -
Precipitation: 3.56 mm    
Historical Graphs
 
 
Tabular Data for August 19, 2021
Time Temperature Dew Point Pressure Wind Wind Speed Wind Gust Humidity Rainfall Rate (Hourly) solar Conditions
00:00 12.7 °C 10.8 °C 1017.8 hPa Calm   3.2 km/h 88% 0 mm 0 W/m2
00:10 12.6 °C 10.7 °C 1017.8 hPa Calm   1.6 km/h 88% 0 mm 0 W/m2
00:20 12.6 °C 10.8 °C 1017.8 hPa Calm   3.2 km/h 89% 0 mm 0 W/m2
00:30 12.6 °C 10.8 °C 1017.8 hPa Calm   3.2 km/h 89% 0 mm 0 W/m2
00:40 12.5 °C 10.7 °C 1017.8 hPa Calm   4.8 km/h 89% 0 mm 0 W/m2
00:50 12.6 °C 11 °C 1017.8 hPa NE 1.6 km/h 8 km/h 90% 0 mm 0 W/m2
01:00 12.8 °C 11.2 °C 1017.8 hPa ENE 4.8 km/h 8 km/h 90% 0 mm 0 W/m2
01:10 12.8 °C 11.1 °C 1017.8 hPa ENE 1.6 km/h 6.4 km/h 89% 0 mm 0 W/m2
01:20 12.7 °C 10.9 °C 1017.8 hPa Calm   8 km/h 89% 0 mm 0 W/m2
01:30 12.9 °C 11.3 °C 1017.8 hPa East 3.2 km/h 9.7 km/h 90% 0 mm 0 W/m2
01:40 13 °C 11.4 °C 1017.8 hPa ESE 4.8 km/h 11.3 km/h 90% 0 mm 0 W/m2
01:50 13.2 °C 11.4 °C 1017.8 hPa East 3.2 km/h 8 km/h 89% 0 mm 0 W/m2
02:00 13.4 °C 11.6 °C 1017.8 hPa ESE 3.2 km/h 12.9 km/h 89% 0 mm 0 W/m2
02:10 13.4 °C 11.6 °C 1017.8 hPa Calm   4.8 km/h 89% 0 mm 0 W/m2
02:20 13.5 °C 11.7 °C 1017.8 hPa NE 4.8 km/h 8 km/h 89% 0 mm 0 W/m2
02:30 13.5 °C 11.7 °C 1017.8 hPa NE 1.6 km/h 8 km/h 89% 0 mm 0 W/m2
02:40 13.6 °C 11.8 °C 1017.8 hPa ENE 1.6 km/h 4.8 km/h 89% 0 mm 0 W/m2
02:50 13.7 °C 11.9 °C 1017.8 hPa Calm   6.4 km/h 89% 0 mm 0 W/m2
03:00 13.7 °C 11.9 °C 1017.5 hPa Calm   8 km/h 89% 0 mm 0 W/m2
03:10 13.8 °C 12 °C 1017.8 hPa NNE 3.2 km/h 4.8 km/h 89% 0 mm 0 W/m2
03:20 13.8 °C 12 °C 1017.8 hPa NE 1.6 km/h 8 km/h 89% 0 mm 0 W/m2
03:30 13.9 °C 12.1 °C 1017.8 hPa ENE 3.2 km/h 6.4 km/h 89% 0 mm 0 W/m2
03:40 14 °C 12.2 °C 1017.8 hPa ENE 3.2 km/h 6.4 km/h 89% 0 mm 0 W/m2
03:50 13.9 °C 11.9 °C 1017.5 hPa Calm   6.4 km/h 88% 0 mm 0 W/m2
04:00 13.8 °C 12 °C 1017.5 hPa Calm   1.6 km/h 89% 0 mm 0 W/m2
04:10 13.8 °C 12 °C 1017.2 hPa SE 3.2 km/h 9.7 km/h 89% 0 mm 0 W/m2
04:20 13.9 °C 12.3 °C 1017.5 hPa East 3.2 km/h 9.7 km/h 90% 0 mm 0 W/m2
04:30 14 °C 12.4 °C 1017.5 hPa Calm   9.7 km/h 90% 0 mm 0 W/m2
04:40 14 °C 12.4 °C 1017.5 hPa ENE 3.2 km/h 6.4 km/h 90% 0 mm 0 W/m2
04:50 14 °C 12.4 °C 1017.5 hPa East 3.2 km/h 8 km/h 90% 0 mm 0 W/m2
05:00 14 °C 12.4 °C 1017.5 hPa ESE 3.2 km/h 9.7 km/h 90% 0 mm 0 W/m2
05:10 14.1 °C 12.5 °C 1017.5 hPa SE 3.2 km/h 9.7 km/h 90% 0 mm 0 W/m2
05:20 14.1 °C 12.5 °C 1017.2 hPa SSE 1.6 km/h 9.7 km/h 90% 0 mm 0 W/m2
05:30 14.1 °C 12.5 °C 1017.2 hPa Calm   8 km/h 90% 0 mm 0 W/m2
05:40 14.1 °C 12.5 °C 1017.2 hPa West 1.6 km/h 4.8 km/h 90% 0 mm 0 W/m2
05:50 14.1 °C 12.5 °C 1017.2 hPa SE 1.6 km/h 9.7 km/h 90% 0 mm 0 W/m2
06:00 14.1 °C 12.7 °C 1017.2 hPa NW 1.6 km/h 6.4 km/h 91% 0 mm 0 W/m2
06:10 14.1 °C 12.7 °C 1017.2 hPa East 3.2 km/h 4.8 km/h 91% 0 mm 0 W/m2
06:20 14.1 °C 12.7 °C 1017.2 hPa ESE 1.6 km/h 8 km/h 91% 0 mm 2 W/m2
06:30 14.1 °C 12.7 °C 1017.5 hPa West 3.2 km/h 4.8 km/h 91% 0 mm 4 W/m2
06:40 14 °C 12.6 °C 1017.2 hPa Calm   4.8 km/h 91% 0 mm 14 W/m2
06:50 14 °C 12.6 °C 1017.2 hPa North 1.6 km/h 3.2 km/h 91% 0 mm 9 W/m2
07:00 14.1 °C 13 °C 1017.5 hPa SE 1.6 km/h 4.8 km/h 93% 0 mm 17 W/m2
07:10 14.1 °C 12.7 °C 1017.5 hPa Calm   3.2 km/h 91% 0 mm 28 W/m2
07:20 14.1 °C 13 °C 1017.5 hPa Calm   3.2 km/h 93% 0 mm 40 W/m2
07:30 14.2 °C 12.8 °C 1017.8 hPa NE 1.6 km/h 6.4 km/h 91% 0 mm 50 W/m2
07:40 14.4 °C 12.9 °C 1017.5 hPa Calm   4.8 km/h 91% 0 mm 47 W/m2
07:50 14.4 °C 12.9 °C 1017.5 hPa Calm   8 km/h 91% 0 mm 66 W/m2
08:00 14.5 °C 13.1 °C 1017.5 hPa Calm   3.2 km/h 91% 0 mm 77 W/m2
08:10 14.6 °C 13.2 °C 1017.5 hPa ENE 1.6 km/h 4.8 km/h 91% 0 mm 61 W/m2
08:20 14.7 °C 13.2 °C 1017.8 hPa SSE 1.6 km/h 4.8 km/h 91% 0 mm 39 W/m2
08:30 14.8 °C 13.2 °C 1017.5 hPa SSE 3.2 km/h 9.7 km/h 90% 0 mm 72 W/m2
08:40 14.9 °C 13.3 °C 1017.8 hPa SE 3.2 km/h 8 km/h 90% 0 mm 88 W/m2
08:50 15.1 °C 13.3 °C 1017.8 hPa ESE 3.2 km/h 9.7 km/h 89% 0 mm 145 W/m2
09:00 15.4 °C 13.6 °C 1017.8 hPa SE 3.2 km/h 11.3 km/h 89% 0 mm 174 W/m2
09:10 15.7 °C 13.7 °C 1017.8 hPa SE 4.8 km/h 12.9 km/h 88% 0 mm 162 W/m2
09:20 15.9 °C 13.6 °C 1017.5 hPa SE 8 km/h 11.3 km/h 86% 0 mm 251 W/m2
09:30 16.4 °C 13.9 °C 1017.8 hPa SE 4.8 km/h 16.1 km/h 85% 0 mm 515 W/m2
09:40 16.9 °C 14 °C 1017.5 hPa SE 9.7 km/h 16.1 km/h 83% 0 mm 312 W/m2
09:50 17.3 °C 14 °C 1017.8 hPa SE 4.8 km/h 14.5 km/h 81% 0 mm 236 W/m2
10:00 17.4 °C 14.1 °C 1017.8 hPa SE 4.8 km/h 12.9 km/h 81% 0 mm 354 W/m2
10:10 17.7 °C 14.2 °C 1017.8 hPa SE 3.2 km/h 12.9 km/h 80% 0 mm 366 W/m2
10:20 18.2 °C 14.5 °C 1017.8 hPa SE 8 km/h 12.9 km/h 79% 0 mm 497 W/m2
10:30 18.4 °C 14.5 °C 1017.8 hPa SSE 3.2 km/h 12.9 km/h 78% 0 mm 273 W/m2
10:40 18.6 °C 14.5 °C 1017.8 hPa SE 4.8 km/h 11.3 km/h 77% 0 mm 256 W/m2
10:50 19 °C 14.9 °C 1017.8 hPa SSW 4.8 km/h 9.7 km/h 77% 0 mm 675 W/m2
11:00 19.9 °C 14.7 °C 1017.8 hPa SW 8 km/h 19.3 km/h 72% 0 mm 689 W/m2
11:10 20.7 °C 14.8 °C 1017.8 hPa SSW 11.3 km/h 22.5 km/h 69% 0 mm 393 W/m2
11:20 20.6 °C 14.5 °C 1017.5 hPa SW 11.3 km/h 19.3 km/h 68% 0 mm 341 W/m2
11:30 20.6 °C 14.5 °C 1017.5 hPa SW 9.7 km/h 17.7 km/h 68% 0 mm 279 W/m2
11:40 20.8 °C 14.7 °C 1017.5 hPa SW 9.7 km/h 14.5 km/h 68% 0 mm 411 W/m2
11:50 21.1 °C 15.2 °C 1017.2 hPa South 11.3 km/h 19.3 km/h 69% 0 mm 498 W/m2
12:00 21.5 °C 15.1 °C 1017.2 hPa South 9.7 km/h 14.5 km/h 67% 0 mm 443 W/m2
12:10 21.5 °C 15.3 °C 1017.2 hPa South 8 km/h 19.3 km/h 68% 0 mm 743 W/m2
12:20 22 °C 15.6 °C 1017.2 hPa South 8 km/h 17.7 km/h 67% 0 mm 745 W/m2
12:30 22.3 °C 15.4 °C 1016.8 hPa South 4.8 km/h 14.5 km/h 65% 0 mm 344 W/m2
12:40 22.3 °C 15.2 °C 1016.8 hPa SSE 8 km/h 12.9 km/h 64% 0 mm 374 W/m2
12:50 22.2 °C 14.8 °C 1016.5 hPa SE 9.7 km/h 16.1 km/h 63% 0 mm 414 W/m2
13:00 22.4 °C 15.3 °C 1016.5 hPa SSE 4.8 km/h 14.5 km/h 64% 0 mm 516 W/m2
13:10 22.6 °C 14.9 °C 1016.5 hPa South 3.2 km/h 9.7 km/h 62% 0 mm 329 W/m2
13:20 22.8 °C 15.2 °C 1016.5 hPa SSW 8 km/h 14.5 km/h 62% 0 mm 718 W/m2
13:30 23.4 °C 15.7 °C 1016.1 hPa SSW 8 km/h 14.5 km/h 62% 0 mm 708 W/m2
13:40 23.9 °C 15.4 °C 1016.1 hPa SSE 8 km/h 16.1 km/h 59% 0 mm 696 W/m2
13:50 24.3 °C 15.5 °C 1015.8 hPa SSW 4.8 km/h 12.9 km/h 58% 0 mm 683 W/m2
14:00 24.6 °C 14.9 °C 1015.8 hPa SW 12.9 km/h 20.9 km/h 55% 0 mm 584 W/m2
14:10 24.2 °C 14.6 °C 1015.8 hPa SW 9.7 km/h 19.3 km/h 55% 0 mm 653 W/m2
14:20 24.5 °C 14.9 °C 1015.8 hPa SSW 8 km/h 19.3 km/h 55% 0 mm 635 W/m2
14:30 24.9 °C 14.9 °C 1015.5 hPa SW 12.9 km/h 22.5 km/h 54% 0 mm 616 W/m2
14:40 24.4 °C 14.5 °C 1015.5 hPa SW 12.9 km/h 24.1 km/h 54% 0 mm 250 W/m2
14:50 24 °C 14.4 °C 1015.5 hPa SW 14.5 km/h 22.5 km/h 55% 0 mm 245 W/m2
15:00 23.7 °C 14.7 °C 1015.5 hPa SW 11.3 km/h 24.1 km/h 57% 0 mm 243 W/m2
15:10 23.5 °C 13.9 °C 1015.5 hPa SW 12.9 km/h 22.5 km/h 55% 0 mm 211 W/m2
15:20 23.4 °C 14.4 °C 1015.5 hPa SW 11.3 km/h 20.9 km/h 57% 0 mm 247 W/m2
15:30 23.4 °C 13.8 °C 1015.5 hPa SW 11.3 km/h 19.3 km/h 55% 0 mm 235 W/m2
15:40 23.4 °C 13.6 °C 1015.5 hPa SW 11.3 km/h 20.9 km/h 54% 0 mm 327 W/m2
15:50 23.7 °C 13.3 °C 1015.1 hPa SW 11.3 km/h 20.9 km/h 52% 0 mm 202 W/m2
16:00 24 °C 12.9 °C 1015.1 hPa SW 12.9 km/h 22.5 km/h 50% 0 mm 396 W/m2
16:10 24.4 °C 13 °C 1014.8 hPa SW 12.9 km/h 20.9 km/h 49% 0 mm 368 W/m2
16:20 24.5 °C 12.8 °C 1014.8 hPa SW 9.7 km/h 19.3 km/h 48% 0 mm 338 W/m2
16:30 24.7 °C 13.3 °C 1014.8 hPa SW 11.3 km/h 19.3 km/h 49% 0 mm 309 W/m2
16:40 24.8 °C 13.1 °C 1014.8 hPa SW 8 km/h 12.9 km/h 48% 0 mm 279 W/m2
16:50 24.8 °C 12.7 °C 1014.8 hPa SW 9.7 km/h 14.5 km/h 47% 0 mm 250 W/m2
17:00 24.8 °C 13.1 °C 1014.8 hPa SW 8 km/h 14.5 km/h 48% 0 mm 220 W/m2
17:10 24.7 °C 12.9 °C 1014.8 hPa SW 8 km/h 14.5 km/h 48% 0 mm 190 W/m2
17:20 24.6 °C 13.2 °C 1014.8 hPa SSW 8 km/h 12.9 km/h 49% 0 mm 161 W/m2
17:30 24.4 °C 13 °C 1014.4 hPa SW 8 km/h 14.5 km/h 49% 0 mm 127 W/m2
17:40 24.2 °C 13.1 °C 1014.4 hPa SW 8 km/h 11.3 km/h 50% 0 mm 98 W/m2
17:50 24 °C 13.6 °C 1014.4 hPa SW 9.7 km/h 12.9 km/h 52% 0 mm 80 W/m2
18:00 23.8 °C 13.6 °C 1014.4 hPa SW 4.8 km/h 12.9 km/h 53% 0 mm 45 W/m2
18:10 23.5 °C 13.9 °C 1014.4 hPa SSW 3.2 km/h 8 km/h 55% 0 mm 24 W/m2
18:20 23.1 °C 14.1 °C 1014.4 hPa South 4.8 km/h 8 km/h 57% 0 mm 13 W/m2
18:30 22.7 °C 13.7 °C 1014.4 hPa SSW 3.2 km/h 9.7 km/h 57% 0 mm 7 W/m2
18:40 22.3 °C 13.6 °C 1014.8 hPa SSW 4.8 km/h 9.7 km/h 58% 0 mm 0 W/m2
18:50 21.9 °C 13.5 °C 1014.4 hPa SSW 3.2 km/h 11.3 km/h 59% 0 mm 0 W/m2
19:00 21.6 °C 13.2 °C 1014.4 hPa SW 1.6 km/h 8 km/h 59% 0 mm 0 W/m2
19:10 21.3 °C 13.2 °C 1014.8 hPa SSW 1.6 km/h 6.4 km/h 60% 0 mm 0 W/m2
19:20 21.1 °C 13 °C 1014.8 hPa Calm   6.4 km/h 60% 0 mm 0 W/m2
19:30 20.9 °C 12.8 °C 1014.8 hPa ENE 3.2 km/h 6.4 km/h 60% 0 mm 0 W/m2
19:40 20.8 °C 13.2 °C 1014.8 hPa SE 1.6 km/h 4.8 km/h 62% 0 mm 0 W/m2
19:50 20.6 °C 13.1 °C 1014.8 hPa Calm   3.2 km/h 62% 0 mm 0 W/m2
20:00 20.3 °C 13 °C 1015.1 hPa Calm   1.6 km/h 63% 0 mm 0 W/m2
20:10 20.1 °C 12.8 °C 1014.8 hPa Calm   3.2 km/h 63% 0 mm 0 W/m2
20:20 20 °C 12.9 °C 1015.1 hPa Calm   8 km/h 64% 0 mm 0 W/m2
20:30 19.9 °C 12.9 °C 1015.1 hPa East 4.8 km/h 11.3 km/h 64% 0 mm 0 W/m2
20:40 19.8 °C 13.1 °C 1015.1 hPa SE 3.2 km/h 11.3 km/h 65% 0 mm 0 W/m2
20:50 19.8 °C 13.1 °C 1015.1 hPa SE 4.8 km/h 16.1 km/h 65% 0 mm 0 W/m2
21:00 19.7 °C 13.4 °C 1014.8 hPa ESE 3.2 km/h 8 km/h 67% 0 mm 0 W/m2
21:10 19.6 °C 13.3 °C 1015.1 hPa SE 3.2 km/h 8 km/h 67% 0 mm 0 W/m2
21:20 19.3 °C 13 °C 1015.1 hPa East 1.6 km/h 6.4 km/h 67% 0 mm 0 W/m2
21:30 19 °C 12.9 °C 1015.5 hPa West 4.8 km/h 9.7 km/h 68% 0 mm 0 W/m2
21:40 18.3 °C 14.2 °C 1015.8 hPa West 9.7 km/h 14.5 km/h 77% 1.02 mm 0 W/m2
21:50 17.8 °C 14.4 °C 1015.8 hPa SE 9.7 km/h 12.9 km/h 81% 1.78 mm 0 W/m2
22:00 17.3 °C 14 °C 1015.5 hPa SSE 3.2 km/h 9.7 km/h 81% 0.25 mm 0 W/m2
22:10 17.1 °C 14.6 °C 1015.5 hPa ESE 4.8 km/h 9.7 km/h 85% 0.25 mm 0 W/m2
22:20 16.8 °C 14.4 °C 1015.8 hPa South 4.8 km/h 8 km/h 86% 0 mm 0 W/m2
22:30 16.6 °C 14.6 °C 1015.8 hPa South 4.8 km/h 8 km/h 88% 0 mm 0 W/m2
22:40 16.4 °C 14.6 °C 1015.8 hPa SSE 1.6 km/h 8 km/h 89% 0 mm 0 W/m2
22:50 16.4 °C 14.8 °C 1015.8 hPa NE 3.2 km/h 9.7 km/h 90% 0 mm 0 W/m2
23:00 16.4 °C 14.8 °C 1015.8 hPa SE 3.2 km/h 9.7 km/h 90% 0 mm 0 W/m2
23:10 16.3 °C 14.5 °C 1015.8 hPa SE 8 km/h 19.3 km/h 89% 0 mm 0 W/m2
23:20 16.2 °C 14.6 °C 1015.8 hPa East 9.7 km/h 12.9 km/h 90% 0 mm 0 W/m2
23:30 16.2 °C 14.4 °C 1015.8 hPa SE 4.8 km/h 17.7 km/h 89% 0 mm 0 W/m2
23:40 16.3 °C 14.5 °C 1015.8 hPa SE 4.8 km/h 17.7 km/h 89% 0 mm 0 W/m2
23:50 16.3 °C 14.5 °C 1015.8 hPa SE 3.2 km/h 14.5 km/h 89% 0 mm 0 W/m2
Knjazevac, Serbia
Compliments of Weather Underground - 2 mb